createdAt,value
2023-04-29T00:01:14.029Z,87257.19
2023-04-29T00:03:41.488Z,87263.22
2023-04-29T00:06:09.048Z,87268.47
2023-04-29T00:08:36.262Z,87265.03
2023-04-29T00:11:03.517Z,87258.63
2023-04-29T00:13:30.797Z,87260.88
2023-04-29T00:15:57.984Z,87262.75
2023-04-29T00:18:25.599Z,87253.66
2023-04-29T00:20:52.778Z,87248.44
2023-04-29T00:23:19.937Z,87248.44
2023-04-29T00:25:47.157Z,87251.47
2023-04-29T00:28:14.497Z,87251.84
2023-04-29T00:30:41.759Z,87258.97
2023-04-29T00:33:09.074Z,87266.50
2023-04-29T00:35:36.428Z,87258.97
2023-04-29T00:38:03.732Z,87262.31
2023-04-29T00:40:31.273Z,87256.69
2023-04-29T00:42:58.443Z,87257.41
2023-04-29T00:45:25.834Z,87255.16
2023-04-29T00:47:53.426Z,87270.19
2023-04-29T00:50:22.686Z,87267.94
2023-04-29T00:52:50.482Z,87273.19
2023-04-29T00:55:17.969Z,87272.81
2023-04-29T00:57:46.213Z,87275.78
2023-04-29T01:00:13.756Z,87282.19
2023-04-29T01:02:41.369Z,87272.00
2023-04-29T01:05:08.873Z,87270.47
2023-04-29T01:08:21.892Z,87261.81
2023-04-29T01:11:06.155Z,87268.56
2023-04-29T01:13:46.301Z,87258.03
2023-04-29T01:16:44.800Z,87254.31
2023-04-29T01:19:47.130Z,87249.03
2023-04-29T01:22:14.786Z,87250.91
2023-04-29T01:24:41.950Z,87242.25
2023-04-29T01:27:39.899Z,87237.72
2023-04-29T01:30:13.298Z,87233.22
2023-04-29T01:32:51.873Z,87234.69
2023-04-29T01:35:50.954Z,87236.19
2023-04-29T01:38:47.578Z,87255.69
2023-04-29T01:41:45.880Z,87254.16
2023-04-29T01:44:20.853Z,87236.09
2023-04-29T01:46:52.846Z,87235.69
2023-04-29T01:49:27.080Z,87245.78
2023-04-29T01:51:55.305Z,87242.41
2023-04-29T01:54:22.977Z,87240.50
2023-04-29T01:56:50.136Z,87247.22
2023-04-29T01:59:17.328Z,87247.59
2023-04-29T02:01:44.502Z,87239.31
2023-04-29T02:04:12.029Z,87243.47
2023-04-29T02:06:39.596Z,87242.69
2023-04-29T02:09:06.820Z,87233.69
2023-04-29T02:11:33.997Z,87235.19
2023-04-29T02:14:01.187Z,87241.25
2023-04-29T02:16:28.529Z,87247.31
2023-04-29T02:18:55.771Z,87241.34
2023-04-29T02:21:23.114Z,87236.09
2023-04-29T02:23:50.642Z,87240.59
2023-04-29T02:26:17.927Z,87232.72
2023-04-29T02:28:45.101Z,87235.03
2023-04-29T02:31:12.620Z,87231.63
2023-04-29T02:33:39.781Z,87227.88
2023-04-29T02:36:07.184Z,87229.38
2023-04-29T02:38:34.393Z,87231.63
2023-04-29T02:41:01.671Z,87229.38
2023-04-29T02:43:28.847Z,87223.03
2023-04-29T02:45:56.060Z,87214.38
2023-04-29T02:48:23.611Z,87210.25
2023-04-29T02:50:51.184Z,87209.50
2023-04-29T02:53:18.645Z,87209.16
2023-04-29T02:55:46.079Z,87208.00
2023-04-29T02:58:13.340Z,87209.53
2023-04-29T03:00:43.515Z,87217.78
2023-04-29T03:03:11.091Z,87227.94
2023-04-29T03:05:38.633Z,87226.47
2023-04-29T03:08:05.911Z,87220.41
2023-04-29T03:10:33.176Z,87228.25
2023-04-29T03:13:00.390Z,87221.50
2023-04-29T03:15:27.599Z,87217.00
2023-04-29T03:17:54.825Z,87208.34
2023-04-29T03:20:22.452Z,87206.09
2023-04-29T03:22:50.036Z,87209.44
2023-04-29T03:25:17.261Z,87204.47
2023-04-29T03:27:44.461Z,87206.38
2023-04-29T03:30:12.026Z,87207.88
2023-04-29T03:32:39.334Z,87209.03
2023-04-29T03:35:08.396Z,87212.03
2023-04-29T03:37:35.876Z,87213.91
2023-04-29T03:40:03.486Z,87215.38
2023-04-29T03:42:31.021Z,87215.75
2023-04-29T03:44:58.244Z,87221.41
2023-04-29T03:47:25.451Z,87220.63
2023-04-29T03:49:52.731Z,87216.91
2023-04-29T03:52:20.165Z,87210.44
2023-04-29T03:54:47.368Z,87208.59
2023-04-29T03:57:14.887Z,87217.59
2023-04-29T03:59:42.062Z,87216.41
2023-04-29T04:02:09.303Z,87217.53
2023-04-29T04:04:37.061Z,87231.44
2023-04-29T04:07:04.395Z,87229.56
2023-04-29T04:09:31.586Z,87240.09
2023-04-29T04:11:58.793Z,87231.38
2023-04-29T04:14:26.128Z,87232.13
2023-04-29T04:16:53.706Z,87226.50
2023-04-29T04:19:20.993Z,87221.63
2023-04-29T04:21:48.249Z,87211.88
2023-04-29T04:24:15.352Z,87209.63
2023-04-29T04:26:42.678Z,87217.91
2023-04-29T04:29:10.119Z,87211.88
2023-04-29T04:31:37.760Z,87219.78
2023-04-29T04:34:04.986Z,87209.25
2023-04-29T04:36:32.288Z,87219.44
2023-04-29T04:38:59.537Z,87213.41
2023-04-29T04:41:26.787Z,87217.19
2023-04-29T04:43:54.072Z,87213.78
2023-04-29T04:46:21.312Z,87219.06
2023-04-29T04:48:48.591Z,87218.69
2023-04-29T04:51:16.038Z,87216.47
2023-04-29T04:53:43.214Z,87218.34
2023-04-29T04:56:10.422Z,87210.44
2023-04-29T04:58:37.764Z,87198.06
2023-04-29T05:01:05.138Z,87198.50
2023-04-29T05:03:32.562Z,87190.22
2023-04-29T05:06:01.339Z,87197.38
2023-04-29T05:08:28.670Z,87203.38
2023-04-29T05:10:55.919Z,87200.41
2023-04-29T05:13:23.138Z,87197.06
2023-04-29T05:15:50.473Z,87198.53
2023-04-29T05:18:17.748Z,87196.34
2023-04-29T05:20:44.935Z,87192.59
2023-04-29T05:23:12.270Z,87195.63
2023-04-29T05:25:39.441Z,87196.75
2023-04-29T05:28:08.085Z,87185.13
2023-04-29T05:30:35.663Z,87194.16
2023-04-29T05:33:04.253Z,87194.16
2023-04-29T05:35:31.451Z,87200.56
2023-04-29T05:37:59.283Z,87197.97
2023-04-29T05:40:26.766Z,87208.09
2023-04-29T05:42:54.072Z,87200.22
2023-04-29T05:45:21.451Z,87204.00
2023-04-29T05:47:48.696Z,87203.63
2023-04-29T05:50:16.039Z,87208.13
2023-04-29T05:52:43.624Z,87199.50
2023-04-29T05:55:11.165Z,87197.97
2023-04-29T05:57:44.347Z,87198.78
2023-04-29T06:00:14.261Z,87198.00
2023-04-29T06:02:54.849Z,87198.81
2023-04-29T06:05:30.069Z,87208.94
2023-04-29T06:08:00.147Z,87211.25
2023-04-29T06:10:27.310Z,87216.56
2023-04-29T06:12:55.924Z,87223.69
2023-04-29T06:15:23.314Z,87226.34
2023-04-29T06:17:52.063Z,87226.38
2023-04-29T06:20:19.429Z,87221.16
2023-04-29T06:22:46.625Z,87221.53
2023-04-29T06:25:13.992Z,87213.66
2023-04-29T06:27:41.177Z,87206.13
2023-04-29T06:30:09.768Z,87206.53
2023-04-29T06:32:38.467Z,87203.88
2023-04-29T06:35:06.357Z,87207.25
2023-04-29T06:37:34.825Z,87202.78
2023-04-29T06:40:04.025Z,87207.66
2023-04-29T06:42:32.799Z,87205.03
2023-04-29T06:45:00.052Z,87214.06
2023-04-29T06:47:27.586Z,87207.31
2023-04-29T06:49:55.185Z,87210.31
2023-04-29T06:52:22.951Z,87213.34
2023-04-29T06:54:59.024Z,87202.03
2023-04-29T06:57:26.662Z,87197.53
2023-04-29T06:59:54.424Z,87192.25
2023-04-29T07:02:26.116Z,87192.63
2023-04-29T07:04:53.826Z,87201.69
2023-04-29T07:07:21.219Z,87198.66
2023-04-29T07:09:48.463Z,87199.41
2023-04-29T07:12:15.592Z,87206.19
2023-04-29T07:14:42.874Z,87197.53
2023-04-29T07:17:11.356Z,87190.72
2023-04-29T07:19:40.526Z,87195.63
2023-04-29T07:22:07.761Z,87197.13
2023-04-29T07:24:34.969Z,87183.16
2023-04-29T07:27:02.293Z,87183.91
2023-04-29T07:29:29.518Z,87179.34
2023-04-29T07:31:56.698Z,87171.03
2023-04-29T07:34:23.855Z,87178.53
2023-04-29T07:36:51.139Z,87174.38
2023-04-29T07:39:18.309Z,87173.59
2023-04-29T07:41:45.537Z,87170.94
2023-04-29T07:44:12.695Z,87169.78
2023-04-29T07:46:39.997Z,87169.72
2023-04-29T07:49:07.304Z,87172.69
2023-04-29T07:51:34.785Z,87175.28
2023-04-29T07:54:02.242Z,87171.84
2023-04-29T07:56:29.652Z,87174.84
2023-04-29T07:58:56.889Z,87171.78
2023-04-29T08:01:24.069Z,87162.31
2023-04-29T08:03:51.468Z,87169.50
2023-04-29T08:06:19.051Z,87165.28
2023-04-29T08:08:46.668Z,87158.84
2023-04-29T08:11:18.643Z,87151.56
2023-04-29T08:13:46.783Z,87162.13
2023-04-29T08:16:14.413Z,87157.59
2023-04-29T08:18:41.989Z,87166.56
2023-04-29T08:21:09.296Z,87166.91
2023-04-29T08:23:36.489Z,87152.09
2023-04-29T08:26:03.940Z,87157.34
2023-04-29T08:28:31.186Z,87155.09
2023-04-29T08:30:58.397Z,87148.63
2023-04-29T08:33:25.525Z,87141.09
2023-04-29T08:35:59.398Z,87150.41
2023-04-29T08:38:31.588Z,87143.16
2023-04-29T08:41:00.673Z,87137.06
2023-04-29T08:43:30.549Z,87141.44
2023-04-29T08:46:00.338Z,87141.78
2023-04-29T08:48:29.729Z,87144.38
2023-04-29T08:50:57.435Z,87146.94
2023-04-29T08:53:25.121Z,87143.09
2023-04-29T08:55:54.943Z,87142.00
2023-04-29T08:58:25.439Z,87142.97
2023-04-29T09:00:53.417Z,87139.06
2023-04-29T09:04:08.979Z,87130.59
2023-04-29T09:06:36.510Z,87139.69
2023-04-29T09:09:05.095Z,87141.09
2023-04-29T09:11:34.404Z,87134.22
2023-04-29T09:14:03.200Z,87135.97
2023-04-29T09:16:30.756Z,87128.25
2023-04-29T09:18:58.448Z,87137.94
2023-04-29T09:21:30.373Z,87127.56
2023-04-29T09:24:03.235Z,87124.44
2023-04-29T09:26:43.867Z,87125.88
2023-04-29T09:29:14.291Z,87114.00
2023-04-29T09:31:42.557Z,87118.03
2023-04-29T09:34:11.393Z,87116.09
2023-04-29T09:36:51.223Z,87112.91
2023-04-29T09:39:23.988Z,87114.28
2023-04-29T09:41:53.926Z,87115.94
2023-04-29T09:44:26.918Z,87108.72
2023-04-29T09:47:03.860Z,87104.38
2023-04-29T09:49:34.749Z,87103.84
2023-04-29T09:52:05.833Z,87105.22
2023-04-29T09:54:35.482Z,87107.31
2023-04-29T09:57:04.720Z,87109.47
2023-04-29T09:59:36.802Z,87107.66
2023-04-29T10:02:19.770Z,87114.56
2023-04-29T10:04:54.686Z,87107.13
2023-04-29T10:07:22.976Z,87103.16
2023-04-29T10:09:50.849Z,87103.72
2023-04-29T10:12:20.752Z,87105.78
2023-04-29T10:15:08.502Z,87096.91
2023-04-29T10:18:11.317Z,87090.28
2023-04-29T10:20:43.361Z,87091.56
2023-04-29T10:23:13.197Z,87094.78
2023-04-29T10:25:42.115Z,87091.88
2023-04-29T10:28:15.904Z,87092.66
2023-04-29T10:30:45.679Z,87090.41
2023-04-29T10:33:16.700Z,87087.84
2023-04-29T10:35:49.228Z,87076.66
2023-04-29T10:38:36.202Z,87079.00
2023-04-29T10:41:10.498Z,87077.16
2023-04-29T10:43:37.934Z,87075.69
2023-04-29T10:46:17.754Z,87068.75
2023-04-29T10:48:51.447Z,87071.41
2023-04-29T10:51:45.255Z,87058.34
2023-04-29T10:54:17.543Z,87068.47
2023-04-29T10:56:48.884Z,87062.88
2023-04-29T10:59:37.088Z,87066.00
2023-04-29T11:02:04.602Z,87063.28
2023-04-29T11:04:32.153Z,87055.69
2023-04-29T11:07:00.653Z,87062.28
2023-04-29T11:09:35.503Z,87063.44
2023-04-29T11:12:08.786Z,87058.56
2023-04-29T11:14:41.546Z,87048.78
2023-04-29T11:17:16.004Z,87045.69
2023-04-29T11:19:52.035Z,87048.47
2023-04-29T11:22:19.488Z,87049.53
2023-04-29T11:25:00.938Z,87044.41
2023-04-29T11:27:33.318Z,87050.81
2023-04-29T11:30:06.877Z,87040.00
2023-04-29T11:32:37.227Z,87052.38
2023-04-29T11:35:22.485Z,87055.31
2023-04-29T11:37:49.723Z,87048.59
2023-04-29T11:40:17.127Z,87061.25
2023-04-29T11:42:47.825Z,87041.97
2023-04-29T11:45:17.543Z,87051.59
2023-04-29T11:47:47.297Z,87042.72
2023-04-29T11:50:17.219Z,87042.06
2023-04-29T11:52:47.051Z,87049.91
2023-04-29T11:55:14.519Z,87047.00
2023-04-29T11:57:42.028Z,87047.06
2023-04-29T12:00:14.124Z,87040.38
2023-04-29T12:02:46.553Z,87042.91
2023-04-29T12:05:14.932Z,87058.31
2023-04-29T12:07:43.746Z,87044.16
2023-04-29T12:10:12.216Z,87050.34
2023-04-29T12:12:44.118Z,87037.53
2023-04-29T12:15:12.968Z,87035.44
2023-04-29T12:17:41.472Z,87029.78
2023-04-29T12:20:10.867Z,87040.06
2023-04-29T12:22:38.877Z,87042.31
2023-04-29T12:25:07.526Z,87033.03
2023-04-29T12:27:36.545Z,87026.22
2023-04-29T12:30:10.888Z,87030.09
2023-04-29T12:32:38.876Z,87029.50
2023-04-29T12:35:06.447Z,87029.03
2023-04-29T12:37:34.251Z,87032.47
2023-04-29T12:40:01.584Z,87026.97
2023-04-29T12:42:34.846Z,87025.16
2023-04-29T12:45:02.110Z,87026.97
2023-04-29T12:47:33.872Z,87023.09
2023-04-29T12:50:01.533Z,87022.63
2023-04-29T12:52:28.886Z,87017.41
2023-04-29T12:54:57.733Z,87020.84
2023-04-29T12:57:25.073Z,87031.44
2023-04-29T12:59:52.406Z,87021.59
2023-04-29T13:02:19.935Z,87018.59
2023-04-29T13:04:47.390Z,87019.03
2023-04-29T13:07:15.018Z,87015.63
2023-04-29T13:09:42.280Z,87013.84
2023-04-29T13:12:09.754Z,87012.31
2023-04-29T13:14:37.286Z,87014.22
2023-04-29T13:17:04.788Z,87002.75
2023-04-29T13:19:48.150Z,87007.63
2023-04-29T13:22:18.599Z,87002.44
2023-04-29T13:24:46.049Z,86998.53
2023-04-29T13:27:13.371Z,87002.09
2023-04-29T13:29:40.612Z,86992.53
2023-04-29T13:32:08.257Z,86990.84
2023-04-29T13:34:35.851Z,86996.97
2023-04-29T13:37:03.421Z,86995.16
2023-04-29T13:39:31.747Z,86991.88
2023-04-29T13:41:59.823Z,86991.69
2023-04-29T13:44:35.848Z,86986.91
2023-04-29T13:47:14.067Z,86989.06
2023-04-29T13:50:16.913Z,86979.81
2023-04-29T13:53:10.488Z,86985.28
2023-04-29T13:56:01.703Z,86983.69
2023-04-29T14:03:04.366Z,86975.97
2023-04-29T14:05:31.926Z,86976.03
2023-04-29T14:07:59.777Z,86984.84
2023-04-29T14:10:26.986Z,86975.72
2023-04-29T14:12:54.138Z,86976.13
2023-04-29T14:15:21.433Z,86972.34
2023-04-29T14:17:48.737Z,86969.59
2023-04-29T14:20:16.069Z,86972.06
2023-04-29T14:22:43.688Z,86967.63
2023-04-29T14:25:12.156Z,86958.56
2023-04-29T14:27:39.357Z,86961.69
2023-04-29T14:30:07.735Z,86960.81
2023-04-29T14:32:35.071Z,86960.88
2023-04-29T14:35:02.353Z,86963.00
2023-04-29T14:37:29.712Z,86961.50
2023-04-29T14:39:56.988Z,86970.22
2023-04-29T14:42:24.644Z,86968.13
2023-04-29T14:44:51.960Z,86963.78
2023-04-29T14:47:19.234Z,86965.97
2023-04-29T14:49:46.481Z,86959.00
2023-04-29T14:52:13.773Z,86968.72
2023-04-29T14:54:41.064Z,86963.91
2023-04-29T14:57:08.323Z,86971.28
2023-04-29T14:59:35.711Z,86961.91
2023-04-29T15:02:02.951Z,86960.16
2023-04-29T15:04:30.171Z,86967.03
2023-04-29T15:06:58.170Z,86965.66
2023-04-29T15:09:25.798Z,86964.94
2023-04-29T15:11:54.535Z,86967.47
2023-04-29T15:14:22.021Z,86967.03
2023-04-29T15:16:49.262Z,86971.75
2023-04-29T15:19:16.640Z,86967.31
2023-04-29T15:21:49.116Z,86968.50
2023-04-29T15:24:17.489Z,86965.66
2023-04-29T15:26:45.359Z,86963.13
2023-04-29T15:29:12.840Z,86969.00
2023-04-29T15:31:40.046Z,86969.50
2023-04-29T15:34:07.259Z,86969.72
2023-04-29T15:36:34.489Z,86959.59
2023-04-29T15:39:01.747Z,86965.56
2023-04-29T15:41:28.887Z,86967.50
2023-04-29T15:43:57.483Z,86979.47
2023-04-29T15:46:24.823Z,86971.38
2023-04-29T15:48:52.059Z,86968.97
2023-04-29T15:51:19.361Z,86970.63
2023-04-29T15:53:46.578Z,86967.13
2023-04-29T15:56:13.826Z,86971.69
2023-04-29T15:58:41.098Z,86968.25
2023-04-29T16:01:08.544Z,86968.34
2023-04-29T16:03:35.750Z,86965.78
2023-04-29T16:06:03.379Z,86967.38
2023-04-29T16:08:30.928Z,86969.03
2023-04-29T16:10:58.265Z,86971.06
2023-04-29T16:13:25.757Z,86980.38
2023-04-29T16:15:53.240Z,86984.34
2023-04-29T16:18:23.647Z,86985.78
2023-04-29T16:20:50.959Z,86985.28
2023-04-29T16:23:18.380Z,86990.00
2023-04-29T16:25:45.714Z,86990.06
2023-04-29T16:28:12.922Z,86987.09
2023-04-29T16:30:40.454Z,86994.44
2023-04-29T16:33:07.977Z,86994.59
2023-04-29T16:35:36.546Z,86997.13
2023-04-29T16:38:04.747Z,86993.56
2023-04-29T16:40:32.056Z,86997.84
2023-04-29T16:42:59.657Z,86999.31
2023-04-29T16:45:27.268Z,87002.28
2023-04-29T16:47:54.711Z,87003.59
2023-04-29T16:50:22.309Z,87011.47
2023-04-29T16:52:49.579Z,87002.50
2023-04-29T16:55:16.918Z,87009.75
2023-04-29T16:57:44.144Z,87006.81
2023-04-29T17:00:11.967Z,87015.84
2023-04-29T17:02:39.602Z,87012.22
2023-04-29T17:05:08.307Z,87018.59
2023-04-29T17:07:35.730Z,87024.94
2023-04-29T17:10:03.039Z,87035.97
2023-04-29T17:12:30.482Z,87033.88
2023-04-29T17:14:57.651Z,87024.09
2023-04-29T17:17:25.157Z,87039.34
2023-04-29T17:19:52.696Z,87041.06
2023-04-29T17:22:20.128Z,87037.25
2023-04-29T17:24:47.375Z,87043.44
2023-04-29T17:27:14.753Z,87054.91
2023-04-29T17:29:42.168Z,87052.63
2023-04-29T17:32:09.696Z,87057.50
2023-04-29T17:34:37.630Z,87066.41
2023-04-29T17:37:06.252Z,87060.84
2023-04-29T17:39:34.562Z,87070.50
2023-04-29T17:42:01.832Z,87074.78
2023-04-29T17:44:29.357Z,87069.22
2023-04-29T17:46:56.587Z,87066.72
2023-04-29T17:49:23.861Z,87072.28
2023-04-29T17:51:51.165Z,87079.91
2023-04-29T17:54:18.487Z,87070.59
2023-04-29T17:56:45.840Z,87085.22
2023-04-29T17:59:13.123Z,87090.25
2023-04-29T18:01:40.456Z,87091.22
2023-04-29T18:04:07.985Z,87085.09
2023-04-29T18:06:35.321Z,87096.00
2023-04-29T18:09:02.750Z,87091.31
2023-04-29T18:11:30.326Z,87094.91
2023-04-29T18:13:57.526Z,87096.31
2023-04-29T18:16:25.108Z,87098.44
2023-04-29T18:18:53.406Z,87103.00
2023-04-29T18:21:27.645Z,87108.22
2023-04-29T18:23:57.171Z,87104.66
2023-04-29T18:26:25.059Z,87106.34
2023-04-29T18:28:52.431Z,87106.94
2023-04-29T18:31:19.834Z,87108.63
2023-04-29T18:33:47.103Z,87108.47
2023-04-29T18:36:14.452Z,87107.63
2023-04-29T18:38:41.909Z,87119.19
2023-04-29T18:41:09.128Z,87119.47
2023-04-29T18:43:36.507Z,87131.97
2023-04-29T18:46:03.841Z,87140.31
2023-04-29T18:48:31.185Z,87139.50
2023-04-29T18:50:59.857Z,87142.13
2023-04-29T18:53:27.470Z,87149.16
2023-04-29T18:55:54.705Z,87154.09
2023-04-29T18:58:22.060Z,87163.38
2023-04-29T19:00:49.471Z,87162.75
2023-04-29T19:03:16.844Z,87164.66
2023-04-29T19:05:44.873Z,87171.59
2023-04-29T19:08:12.094Z,87177.56
2023-04-29T19:10:39.504Z,87177.28
2023-04-29T19:13:06.830Z,87182.00
2023-04-29T19:15:34.547Z,87182.91
2023-04-29T19:18:01.854Z,87182.34
2023-04-29T19:20:29.837Z,87192.34
2023-04-29T19:22:57.001Z,87196.69
2023-04-29T19:25:24.535Z,87193.88
2023-04-29T19:27:52.548Z,87196.66
2023-04-29T19:30:19.957Z,87202.88
2023-04-29T19:32:48.872Z,87198.09
2023-04-29T19:35:16.184Z,87206.16
2023-04-29T19:37:43.445Z,87208.81
2023-04-29T19:40:11.481Z,87208.16
2023-04-29T19:42:40.837Z,87212.09
2023-04-29T19:45:09.365Z,87214.50
2023-04-29T19:47:36.720Z,87214.56
2023-04-29T19:50:05.227Z,87218.06
2023-04-29T19:52:32.643Z,87224.59
2023-04-29T19:54:59.849Z,87215.97
2023-04-29T19:57:27.128Z,87223.63
2023-04-29T19:59:55.011Z,87222.81
2023-04-29T20:02:22.793Z,87227.44
2023-04-29T20:04:50.136Z,87230.94
2023-04-29T20:07:17.595Z,87230.22
2023-04-29T20:09:44.834Z,87226.84
2023-04-29T20:12:12.440Z,87228.50
2023-04-29T20:14:40.024Z,87225.56
2023-04-29T20:17:07.433Z,87227.16
2023-04-29T20:19:34.903Z,87237.06
2023-04-29T20:22:02.164Z,87237.88
2023-04-29T20:24:29.508Z,87236.41
2023-04-29T20:26:56.813Z,87238.34
2023-04-29T20:29:24.075Z,87235.81
2023-04-29T20:31:51.469Z,87241.13
2023-04-29T20:34:18.916Z,87241.56
2023-04-29T20:36:46.078Z,87240.88
2023-04-29T20:39:13.313Z,87241.25
2023-04-29T20:41:40.686Z,87253.03
2023-04-29T20:44:07.945Z,87245.50
2023-04-29T20:46:35.218Z,87255.00
2023-04-29T20:49:02.859Z,87255.47
2023-04-29T20:51:30.326Z,87260.78
2023-04-29T20:53:57.700Z,87260.06
2023-04-29T20:56:25.064Z,87266.53
2023-04-29T20:58:52.468Z,87268.44
2023-04-29T21:01:19.777Z,87276.38
2023-04-29T21:03:46.993Z,87277.94
2023-04-29T21:06:14.416Z,87275.28
2023-04-29T21:08:42.162Z,87276.06
2023-04-29T21:11:09.331Z,87284.44
2023-04-29T21:13:37.425Z,87277.63
2023-04-29T21:16:05.305Z,87290.94
2023-04-29T21:18:32.661Z,87281.50
2023-04-29T21:20:59.882Z,87277.38
2023-04-29T21:23:27.258Z,87286.09
2023-04-29T21:25:54.392Z,87294.09
2023-04-29T21:28:21.556Z,87287.31
2023-04-29T21:30:48.774Z,87293.78
2023-04-29T21:33:16.199Z,87290.41
2023-04-29T21:35:43.538Z,87295.34
2023-04-29T21:38:10.777Z,87295.38
2023-04-29T21:40:42.225Z,87296.22
2023-04-29T21:43:11.137Z,87293.22
2023-04-29T21:45:38.927Z,87292.50
2023-04-29T21:48:18.015Z,87294.03
2023-04-29T21:50:46.061Z,87292.16
2023-04-29T21:53:16.497Z,87299.72
2023-04-29T21:55:44.120Z,87303.91
2023-04-29T21:58:11.291Z,87305.09
2023-04-29T22:00:38.599Z,87303.25
2023-04-29T22:03:08.787Z,87305.50
2023-04-29T22:05:37.423Z,87310.41
2023-04-29T22:08:06.906Z,87304.38
2023-04-29T22:10:34.081Z,87308.53
2023-04-29T22:13:01.331Z,87305.53
2023-04-29T22:15:29.621Z,87307.06
2023-04-29T22:17:57.978Z,87300.63
2023-04-29T22:20:26.111Z,87296.13
2023-04-29T22:22:54.278Z,87304.81
2023-04-29T22:25:22.116Z,87300.69
2023-04-29T22:27:50.352Z,87307.84
2023-04-29T22:30:18.098Z,87310.50
2023-04-29T22:32:45.821Z,87301.47
2023-04-29T22:35:13.546Z,87308.66
2023-04-29T22:37:41.177Z,87314.34
2023-04-29T22:40:09.375Z,87316.63
2023-04-29T22:42:36.920Z,87315.50
2023-04-29T22:45:04.748Z,87330.56
2023-04-29T22:47:32.622Z,87314.34
2023-04-29T22:50:00.254Z,87318.53
2023-04-29T22:52:27.818Z,87322.28
2023-04-29T22:54:55.420Z,87317.00
2023-04-29T22:57:22.920Z,87324.94
2023-04-29T22:59:54.823Z,87321.94
2023-04-29T23:02:23.512Z,87319.66
2023-04-29T23:04:51.306Z,87321.19
2023-04-29T23:07:18.906Z,87327.22
2023-04-29T23:09:46.476Z,87326.47
2023-04-29T23:12:14.053Z,87331.34
2023-04-29T23:14:41.645Z,87332.47
2023-04-29T23:17:09.356Z,87329.09
2023-04-29T23:19:36.994Z,87335.88
2023-04-29T23:22:04.835Z,87335.47
2023-04-29T23:24:32.424Z,87329.44
2023-04-29T23:26:59.936Z,87330.19
2023-04-29T23:29:27.490Z,87328.66
2023-04-29T23:31:54.974Z,87328.66
2023-04-29T23:34:22.574Z,87325.66
2023-04-29T23:36:50.098Z,87332.44
2023-04-29T23:39:17.601Z,87332.81
2023-04-29T23:41:45.117Z,87327.16
2023-04-29T23:44:12.718Z,87331.69
2023-04-29T23:46:40.478Z,87327.91
2023-04-29T23:49:08.163Z,87333.91
2023-04-29T23:51:35.788Z,87328.66
2023-04-29T23:54:03.548Z,87329.75
2023-04-29T23:56:31.271Z,87326.00
2023-04-29T23:58:58.818Z,87327.50
